Time;durP1;ratioP1;P1;durP2;ratioP2;P2;SDS_P1;SDS_P2;PMS_P1;PMS_P2;Temp;Humidity;BMP_temperature;BMP_pressure;BME280_temperature;BME280_humidity;BME280_pressure;Samples;Min_cycle;Max_cycle;Signal;HPM_P1;HPM_P2
2022/03/01 00:01:01;;;;;;;7.85;6.32;;;18.50;79.10;;;;;;4226306;28;20202;-72
2022/03/01 00:03:03;;;;;;;7.40;6.15;;;18.50;79.10;;;;;;4228457;28;20218;-72
2022/03/01 00:05:07;;;;;;;9.93;6.90;;;18.40;79.00;;;;;;4228511;28;20210;-72
2022/03/01 00:07:09;;;;;;;8.63;6.80;;;18.50;79.10;;;;;;4228519;28;20237;-72
2022/03/01 00:09:12;;;;;;;9.20;6.35;;;18.40;79.00;;;;;;4228808;28;20251;-72
2022/03/01 00:11:16;;;;;;;8.50;6.85;;;18.50;79.10;;;;;;4227218;28;20584;-72
2022/03/01 00:13:18;;;;;;;8.93;6.78;;;18.40;79.00;;;;;;4223260;28;20202;-72
2022/03/01 00:15:20;;;;;;;8.60;6.65;;;18.40;78.90;;;;;;4225149;28;20575;-72
2022/03/01 00:17:23;;;;;;;7.97;6.30;;;18.40;79.00;;;;;;4228092;28;20236;-72
2022/03/01 00:19:27;;;;;;;10.00;7.00;;;18.40;79.00;;;;;;4228259;28;20240;-72
2022/03/01 00:21:29;;;;;;;8.90;6.82;;;18.40;79.00;;;;;;4228181;28;20286;-72
2022/03/01 00:23:32;;;;;;;8.73;6.63;;;18.40;78.80;;;;;;4226448;28;20584;-72
2022/03/01 00:25:35;;;;;;;10.30;7.18;;;18.40;78.90;;;;;;4226367;28;20254;-72
2022/03/01 00:27:38;;;;;;;8.88;6.70;;;18.40;78.80;;;;;;4228136;28;20278;-72
2022/03/01 00:29:41;;;;;;;9.88;7.40;;;18.40;79.00;;;;;;4226658;28;20218;-72
2022/03/01 00:31:43;;;;;;;8.38;6.10;;;18.40;78.90;;;;;;4228449;28;20221;-72
2022/03/01 00:33:45;;;;;;;8.98;6.38;;;18.30;78.60;;;;;;4219183;28;20263;-72
2022/03/01 00:35:48;;;;;;;10.70;7.13;;;18.30;78.70;;;;;;4225692;28;20214;-72
2022/03/01 00:37:50;;;;;;;9.90;6.90;;;18.30;78.80;;;;;;4228464;28;20592;-72
2022/03/01 00:39:52;;;;;;;9.93;6.85;;;18.40;78.70;;;;;;4228067;28;20271;-72
2022/03/01 00:41:55;;;;;;;8.50;6.65;;;18.30;78.70;;;;;;4225670;28;20214;-72
2022/03/01 00:43:58;;;;;;;8.75;6.63;;;18.30;78.60;;;;;;4227873;28;20205;-72
2022/03/01 00:46:01;;;;;;;8.40;6.40;;;18.30;78.60;;;;;;4227260;28;20214;-72
2022/03/01 00:48:03;;;;;;;7.43;6.53;;;18.30;78.60;;;;;;4228030;28;20300;-72
2022/03/01 00:50:07;;;;;;;8.65;6.93;;;18.30;78.80;;;;;;4226363;28;20222;-72
2022/03/01 00:52:09;;;;;;;8.38;6.30;;;18.30;78.70;;;;;;4223255;28;20206;-72
2022/03/01 00:54:11;;;;;;;8.10;6.38;;;18.30;78.70;;;;;;4227683;28;20218;-72
2022/03/01 00:56:14;;;;;;;9.07;6.50;;;18.30;78.80;;;;;;4227707;28;20749;-72
2022/03/01 00:58:16;;;;;;;9.35;6.38;;;18.30;78.70;;;;;;4226491;28;20299;-72
2022/03/01 01:00:20;;;;;;;8.05;6.30;;;18.30;78.80;;;;;;4227109;28;20302;-72
2022/03/01 01:02:23;;;;;;;10.82;6.43;;;18.30;78.80;;;;;;4227388;28;20662;-72
2022/03/01 01:04:25;;;;;;;10.48;6.53;;;18.30;78.90;;;;;;4227832;28;20214;-72
2022/03/01 01:06:27;;;;;;;9.30;6.30;;;18.30;78.80;;;;;;4231164;28;20221;-72
2022/03/01 01:08:30;;;;;;;8.38;6.70;;;18.30;78.80;;;;;;4231140;28;20233;-72
2022/03/01 01:10:32;;;;;;;8.98;6.57;;;18.30;78.80;;;;;;4223113;28;20247;-72
2022/03/01 01:12:35;;;;;;;8.82;6.38;;;18.30;78.80;;;;;;4227157;28;20281;-72
2022/03/01 01:14:38;;;;;;;9.68;6.97;;;18.30;78.70;;;;;;4230917;28;20282;-72
2022/03/01 01:16:42;;;;;;;8.40;7.10;;;18.20;78.70;;;;;;4230820;28;20225;-72
2022/03/01 01:18:44;;;;;;;8.18;6.53;;;18.20;78.60;;;;;;4230375;28;20209;-72
2022/03/01 01:20:46;;;;;;;9.57;6.95;;;18.20;78.50;;;;;;4229783;28;20620;-72
2022/03/01 01:22:49;;;;;;;9.35;6.47;;;18.20;78.50;;;;;;4229880;28;20271;-72
2022/03/01 01:24:51;;;;;;;8.45;6.47;;;18.20;78.50;;;;;;4230027;28;20226;-72
2022/03/01 01:26:54;;;;;;;8.93;6.53;;;18.20;78.50;;;;;;4230918;28;20218;-72
2022/03/01 01:28:56;;;;;;;8.93;6.43;;;18.20;78.50;;;;;;4223510;28;20245;-72
2022/03/01 01:30:58;;;;;;;8.48;6.43;;;18.20;78.50;;;;;;4225237;28;20210;-72
2022/03/01 01:33:03;;;;;;;8.95;6.78;;;18.20;78.60;;;;;;4226119;28;20222;-72
2022/03/01 01:35:07;;;;;;;8.98;6.65;;;18.20;78.70;;;;;;4224134;28;20738;-72
2022/03/01 01:37:09;;;;;;;8.05;6.35;;;18.20;78.60;;;;;;4225751;28;20262;-72
2022/03/01 01:39:11;;;;;;;8.40;6.50;;;18.20;78.50;;;;;;4226561;28;20209;-72
2022/03/01 01:41:14;;;;;;;9.13;6.53;;;18.10;78.30;;;;;;4225724;28;20214;-72
2022/03/01 01:43:16;;;;;;;9.00;6.32;;;18.10;78.30;;;;;;4225748;28;20274;-72
2022/03/01 01:45:19;;;;;;;8.45;6.97;;;18.10;78.50;;;;;;4225085;28;20581;-72
2022/03/01 01:47:21;;;;;;;8.23;6.57;;;18.20;78.50;;;;;;4221415;28;20214;-72
2022/03/01 01:49:25;;;;;;;9.27;6.88;;;18.10;78.30;;;;;;4223670;28;20304;-72
2022/03/01 01:51:28;;;;;;;7.60;6.18;;;18.10;78.50;;;;;;4221866;28;20214;-72
2022/03/01 01:53:30;;;;;;;8.82;6.55;;;18.10;78.40;;;;;;4222746;28;20209;-72
2022/03/01 01:55:33;;;;;;;9.45;6.07;;;18.10;78.50;;;;;;4222612;28;20666;-72
2022/03/01 01:57:35;;;;;;;8.60;6.53;;;18.10;78.50;;;;;;4222679;28;20619;-72
2022/03/01 01:59:38;;;;;;;6.75;6.05;;;18.10;78.40;;;;;;4221888;28;20205;-72
2022/03/01 02:01:40;;;;;;;9.13;6.47;;;18.10;78.50;;;;;;4222568;28;20260;-72
2022/03/01 02:03:42;;;;;;;6.88;6.15;;;18.10;78.50;;;;;;4220721;28;20268;-72
2022/03/01 02:05:46;;;;;;;8.13;6.38;;;18.10;78.60;;;;;;4220945;28;20222;-72
2022/03/01 02:07:50;;;;;;;8.27;6.38;;;18.10;78.50;;;;;;4222967;28;20255;-72
2022/03/01 02:09:53;;;;;;;8.23;6.82;;;18.10;78.50;;;;;;4226132;28;20684;-72
2022/03/01 02:11:55;;;;;;;9.70;6.68;;;18.10;78.50;;;;;;4225212;28;20234;-72
2022/03/01 02:13:57;;;;;;;9.15;6.75;;;18.10;78.50;;;;;;4224665;28;20711;-72
2022/03/01 02:16:00;;;;;;;10.10;6.53;;;18.10;78.50;;;;;;4223528;28;20608;-72
2022/03/01 02:18:02;;;;;;;8.60;6.43;;;18.00;78.30;;;;;;4226036;28;20365;-72
2022/03/01 02:20:12;;;;;;;7.10;6.28;;;18.00;78.40;;;;;;4223758;28;20305;-71
2022/03/01 02:22:15;;;;;;;8.70;6.35;;;18.00;78.60;;;;;;4226411;28;20285;-72
2022/03/01 02:24:18;;;;;;;9.05;6.40;;;18.10;78.60;;;;;;4224433;28;20682;-72
2022/03/01 02:26:21;;;;;;;8.63;6.35;;;18.00;78.50;;;;;;4225130;28;20210;-72
2022/03/01 02:28:23;;;;;;;7.40;6.25;;;18.00;78.60;;;;;;4223596;28;20291;-72
2022/03/01 02:30:25;;;;;;;7.50;6.18;;;18.00;78.50;;;;;;4223907;28;20575;-72
2022/03/01 02:32:28;;;;;;;7.80;6.18;;;18.00;78.30;;;;;;4228852;28;20210;-72
2022/03/01 02:34:31;;;;;;;8.68;6.40;;;18.00;78.40;;;;;;4229828;28;20263;-72
2022/03/01 02:36:35;;;;;;;8.77;6.38;;;18.00;78.60;;;;;;4229757;28;20221;-72
2022/03/01 02:38:37;;;;;;;8.25;6.32;;;18.00;78.50;;;;;;4229946;28;20263;-72
2022/03/01 02:40:40;;;;;;;9.00;6.18;;;18.00;78.40;;;;;;4229901;28;20270;-72
2022/03/01 02:42:44;;;;;;;8.68;6.18;;;18.00;78.50;;;;;;4230126;28;20302;-72
2022/03/01 02:44:47;;;;;;;7.97;6.03;;;18.00;78.40;;;;;;4227810;28;20225;-72
2022/03/01 02:46:49;;;;;;;8.07;5.97;;;18.00;78.30;;;;;;4229726;28;20267;-72
2022/03/01 02:48:51;;;;;;;7.63;5.72;;;18.00;78.30;;;;;;4227102;28;20242;-72
2022/03/01 02:50:54;;;;;;;9.10;6.32;;;18.00;78.40;;;;;;4227111;27;20218;-72
2022/03/01 02:52:58;;;;;;;9.32;6.30;;;17.90;78.30;;;;;;4229791;28;20218;-72
2022/03/01 02:55:00;;;;;;;7.65;5.95;;;17.90;78.10;;;;;;4228885;28;20214;-72
2022/03/01 02:57:03;;;;;;;10.27;6.25;;;17.90;78.10;;;;;;4229180;28;20210;-72
2022/03/01 02:59:05;;;;;;;7.10;5.60;;;17.90;78.10;;;;;;4222936;28;20205;-72
2022/03/01 03:01:08;;;;;;;8.93;6.00;;;17.90;78.10;;;;;;4226905;28;20214;-72
2022/03/01 03:03:11;;;;;;;8.60;6.28;;;17.90;78.10;;;;;;4229116;28;20214;-72
2022/03/01 03:05:13;;;;;;;8.70;6.32;;;17.90;78.20;;;;;;4229618;28;20254;-72
2022/03/01 03:07:16;;;;;;;10.10;6.53;;;17.90;78.10;;;;;;4223630;28;20218;-72
2022/03/01 03:09:21;;;;;;;8.52;6.43;;;17.90;78.20;;;;;;4225851;28;20233;-72
2022/03/01 03:11:23;;;;;;;8.23;5.53;;;17.90;78.50;;;;;;4229190;28;20255;-72
2022/03/01 03:13:26;;;;;;;7.70;6.18;;;17.90;78.40;;;;;;4229194;28;20210;-72
2022/03/01 03:15:29;;;;;;;8.48;5.68;;;17.90;78.30;;;;;;4226825;28;20290;-72
2022/03/01 03:17:31;;;;;;;8.55;6.00;;;17.90;78.20;;;;;;4227895;28;20714;-72
2022/03/01 03:19:34;;;;;;;8.15;6.18;;;17.90;78.10;;;;;;4228892;28;20280;-71
2022/03/01 03:21:36;;;;;;;7.05;5.80;;;17.90;78.20;;;;;;4229005;28;20522;-72
2022/03/01 03:23:39;;;;;;;7.75;6.00;;;17.90;78.20;;;;;;4229060;28;20206;-71
2022/03/01 03:25:42;;;;;;;8.63;6.00;;;17.90;78.20;;;;;;4229048;28;20266;-71
2022/03/01 03:27:45;;;;;;;7.97;6.20;;;17.90;78.10;;;;;;4229082;28;20616;-72
2022/03/01 03:29:47;;;;;;;8.25;6.22;;;17.90;78.20;;;;;;4228827;28;20673;-72
2022/03/01 03:31:54;;;;;;;7.00;5.53;;;17.90;78.10;;;;;;4229177;28;20213;-72
2022/03/01 03:33:57;;;;;;;7.20;5.93;;;17.90;78.00;;;;;;4229036;28;20282;-72
2022/03/01 03:35:59;;;;;;;8.13;5.88;;;17.90;78.00;;;;;;4227107;28;20742;-72
2022/03/01 03:38:01;;;;;;;7.70;5.90;;;17.90;78.00;;;;;;4227482;28;20218;-72
2022/03/01 03:40:04;;;;;;;8.75;6.07;;;17.90;78.10;;;;;;4228667;28;20278;-72
2022/03/01 03:42:08;;;;;;;7.20;5.18;;;17.90;78.10;;;;;;4229105;28;20247;-72
2022/03/01 03:44:11;;;;;;;8.45;5.65;;;17.80;78.00;;;;;;4226297;28;20258;-72
2022/03/01 03:46:13;;;;;;;7.68;5.65;;;17.80;77.90;;;;;;4229111;28;20736;-72
2022/03/01 03:48:16;;;;;;;7.90;5.97;;;17.80;78.00;;;;;;4228790;28;20266;-72
2022/03/01 03:50:18;;;;;;;8.18;6.03;;;17.80;77.90;;;;;;4228565;28;20290;-71
2022/03/01 03:52:20;;;;;;;8.10;6.05;;;17.80;77.80;;;;;;4226181;28;20655;-71
2022/03/01 03:54:22;;;;;;;8.55;6.53;;;17.80;78.00;;;;;;4228819;28;20222;-71
2022/03/01 03:56:25;;;;;;;8.82;6.13;;;17.80;77.90;;;;;;4228831;28;20727;-72
2022/03/01 03:58:28;;;;;;;7.38;6.38;;;17.80;77.90;;;;;;4228789;28;20217;-72
2022/03/01 04:00:31;;;;;;;7.82;5.45;;;17.80;77.80;;;;;;4228870;28;20282;-72
2022/03/01 04:02:33;;;;;;;8.65;6.03;;;17.80;77.90;;;;;;4227747;28;20660;-72
2022/03/01 04:04:37;;;;;;;8.50;5.75;;;17.80;77.90;;;;;;4228109;28;20263;-71
2022/03/01 04:06:39;;;;;;;7.38;5.88;;;17.80;78.10;;;;;;4228502;28;20217;-71
2022/03/01 04:08:41;;;;;;;7.10;5.70;;;17.80;78.00;;;;;;4228652;28;20362;-72
2022/03/01 04:10:44;;;;;;;6.97;5.68;;;17.80;77.90;;;;;;4227566;28;20274;-71
2022/03/01 04:12:46;;;;;;;7.13;5.90;;;17.80;77.90;;;;;;4228450;28;20225;-71
2022/03/01 04:14:50;;;;;;;7.63;5.70;;;17.80;77.90;;;;;;4224652;28;20230;-72
2022/03/01 04:16:52;;;;;;;8.38;5.97;;;17.80;77.80;;;;;;4228336;28;20226;-71
2022/03/01 04:18:55;;;;;;;8.73;5.80;;;17.80;77.80;;;;;;4228576;28;20842;-71
2022/03/01 04:20:58;;;;;;;7.50;6.13;;;17.70;77.70;;;;;;4223686;28;20270;-71
2022/03/01 04:23:00;;;;;;;6.85;5.13;;;17.80;77.90;;;;;;4225808;28;20225;-72
2022/03/01 04:25:03;;;;;;;7.95;6.03;;;17.80;77.90;;;;;;4228289;28;20232;-72
2022/03/01 04:27:05;;;;;;;7.05;5.57;;;17.70;77.90;;;;;;4225988;28;20290;-71
2022/03/01 04:29:07;;;;;;;7.63;5.93;;;17.70;77.80;;;;;;4227363;28;20206;-72
2022/03/01 04:31:11;;;;;;;6.82;5.70;;;17.70;77.90;;;;;;4228203;28;20699;-71
2022/03/01 04:33:14;;;;;;;7.00;5.35;;;17.70;77.70;;;;;;4228453;28;20210;-71
2022/03/01 04:35:16;;;;;;;9.77;5.95;;;17.70;77.50;;;;;;4226024;28;20634;-71
2022/03/01 04:37:19;;;;;;;8.82;6.15;;;17.70;77.70;;;;;;4228492;28;20213;-71
2022/03/01 04:39:22;;;;;;;7.60;6.03;;;17.70;77.80;;;;;;4228221;28;20247;-72
2022/03/01 04:41:24;;;;;;;8.27;5.28;;;17.70;78.30;;;;;;4227570;28;20258;-71
2022/03/01 04:43:27;;;;;;;7.10;5.50;;;17.70;77.70;;;;;;4226872;28;20222;-72
2022/03/01 04:45:30;;;;;;;8.25;5.38;;;17.70;77.50;;;;;;4227930;28;20217;-72
2022/03/01 04:47:34;;;;;;;8.60;5.97;;;17.70;77.50;;;;;;4225405;28;20251;-71
2022/03/01 04:49:36;;;;;;;9.30;6.55;;;17.70;77.50;;;;;;4227736;28;20237;-71
2022/03/01 04:51:39;;;;;;;7.30;5.82;;;17.70;77.60;;;;;;4226866;28;20384;-71
2022/03/01 04:53:41;;;;;;;7.70;5.82;;;17.70;77.60;;;;;;4228350;28;20555;-71
2022/03/01 04:55:43;;;;;;;7.22;5.65;;;17.70;77.70;;;;;;4228239;28;20217;-72
2022/03/01 04:57:46;;;;;;;7.43;5.63;;;17.70;77.60;;;;;;4227831;28;20209;-71
2022/03/01 04:59:48;;;;;;;6.70;5.60;;;17.70;77.50;;;;;;4228264;28;20632;-71
2022/03/01 05:01:50;;;;;;;7.15;5.45;;;17.70;77.70;;;;;;4226149;28;20279;-72
2022/03/01 05:03:54;;;;;;;7.03;5.57;;;17.60;77.40;;;;;;4225932;28;20262;-72
2022/03/01 05:05:56;;;;;;;7.95;5.65;;;17.60;77.50;;;;;;4226229;28;20354;-71
2022/03/01 05:07:59;;;;;;;6.60;5.43;;;17.70;77.60;;;;;;4225952;28;20226;-72
2022/03/01 05:10:01;;;;;;;6.05;5.20;;;17.60;77.60;;;;;;4228138;28;20228;-71
2022/03/01 05:12:04;;;;;;;7.32;5.68;;;17.60;77.70;;;;;;4227843;28;20622;-71
2022/03/01 05:14:07;;;;;;;7.70;5.55;;;17.70;77.70;;;;;;4227586;28;20222;-72
2022/03/01 05:16:09;;;;;;;8.25;5.75;;;17.60;77.30;;;;;;4228043;28;20218;-71
2022/03/01 05:18:11;;;;;;;7.50;5.40;;;17.60;77.30;;;;;;4227400;28;20218;-71
2022/03/01 05:20:17;;;;;;;7.75;5.75;;;17.60;77.40;;;;;;4227995;28;20251;-71
2022/03/01 05:22:19;;;;;;;6.95;5.50;;;17.60;77.20;;;;;;4227278;28;20960;-71
2022/03/01 05:24:21;;;;;;;6.57;5.38;;;17.60;77.30;;;;;;4226936;28;20210;-71
2022/03/01 05:26:24;;;;;;;7.78;5.60;;;17.60;77.20;;;;;;4227805;28;20614;-71
2022/03/01 05:28:26;;;;;;;6.07;5.35;;;17.60;77.30;;;;;;4227820;28;20287;-72
2022/03/01 05:30:28;;;;;;;7.68;5.70;;;17.60;77.30;;;;;;4228040;28;20234;-71
2022/03/01 05:32:33;;;;;;;6.30;5.57;;;17.60;77.30;;;;;;4227015;28;20206;-72
2022/03/01 05:34:35;;;;;;;8.02;6.00;;;17.60;77.20;;;;;;4225952;28;20214;-71
2022/03/01 05:36:39;;;;;;;7.10;5.47;;;17.60;77.20;;;;;;4227569;28;20221;-71
2022/03/01 05:38:42;;;;;;;7.47;5.47;;;17.60;77.30;;;;;;4227511;28;20226;-71
2022/03/01 05:40:44;;;;;;;9.00;5.13;;;17.60;77.20;;;;;;4227709;28;20214;-72
2022/03/01 05:42:47;;;;;;;6.63;5.35;;;17.60;77.20;;;;;;4227794;28;20221;-71
2022/03/01 05:44:49;;;;;;;8.23;5.20;;;17.60;77.30;;;;;;4227495;28;20242;-71
2022/03/01 05:46:52;;;;;;;7.25;5.88;;;17.60;77.30;;;;;;4227344;28;20283;-71
2022/03/01 05:48:54;;;;;;;7.95;5.38;;;17.60;77.20;;;;;;4224959;28;20226;-71
2022/03/01 05:50:57;;;;;;;6.43;5.57;;;17.60;77.20;;;;;;4226054;28;20748;-71
2022/03/01 05:53:01;;;;;;;6.53;5.18;;;17.50;77.10;;;;;;4228086;28;20654;-71
2022/03/01 05:55:06;;;;;;;6.97;5.55;;;17.40;77.30;;;;;;4228606;28;20213;-71
2022/03/01 05:57:08;;;;;;;7.05;5.30;;;17.10;78.00;;;;;;4230422;28;20259;-72
2022/03/01 05:59:10;;;;;;;5.85;5.05;;;17.20;77.90;;;;;;4231080;28;20209;-71
2022/03/01 06:01:13;;;;;;;6.53;4.97;;;17.30;77.40;;;;;;4230498;28;20823;-72
2022/03/01 06:03:15;;;;;;;7.03;5.30;;;17.40;77.60;;;;;;4230688;28;20210;-71
2022/03/01 06:05:18;;;;;;;6.75;4.90;;;17.50;77.20;;;;;;4230802;28;20205;-72
2022/03/01 06:07:21;;;;;;;8.63;5.57;;;17.50;76.70;;;;;;4230338;28;20270;-71
2022/03/01 06:09:25;;;;;;;8.52;5.88;;;17.60;76.60;;;;;;4225665;28;20270;-71
2022/03/01 06:11:27;;;;;;;7.15;5.20;;;17.70;76.80;;;;;;4228495;28;20234;-71
2022/03/01 06:13:29;;;;;;;7.03;5.68;;;17.70;77.80;;;;;;4230564;28;20209;-71
2022/03/01 06:15:32;;;;;;;7.22;5.13;;;17.80;77.80;;;;;;4227620;28;20266;-71
2022/03/01 06:17:34;;;;;;;6.07;5.00;;;17.80;79.10;;;;;;4227917;28;20209;-71
2022/03/01 06:19:37;;;;;;;8.10;5.32;;;17.80;79.50;;;;;;4230463;28;20262;-71
2022/03/01 06:21:39;;;;;;;7.10;5.22;;;17.80;78.60;;;;;;4230172;28;20214;-72
2022/03/01 06:23:42;;;;;;;5.20;4.70;;;17.80;80.00;;;;;;4230480;28;20278;-71
2022/03/01 06:25:46;;;;;;;7.03;4.70;;;17.80;79.10;;;;;;4228865;28;20287;-71
2022/03/01 06:27:49;;;;;;;5.75;4.70;;;17.80;80.00;;;;;;4229689;28;20213;-72
2022/03/01 06:29:52;;;;;;;5.57;4.78;;;17.80;80.00;;;;;;4230270;28;20718;-72
2022/03/01 06:31:54;;;;;;;7.20;4.68;;;17.80;80.20;;;;;;4229807;28;20286;-71
2022/03/01 06:33:56;;;;;;;5.80;4.85;;;17.80;80.40;;;;;;4228640;28;20218;-72
2022/03/01 06:35:59;;;;;;;5.80;4.60;;;17.80;80.60;;;;;;4228703;28;20266;-71
2022/03/01 06:38:01;;;;;;;6.43;5.10;;;17.80;80.40;;;;;;4230060;28;20235;-71
2022/03/01 06:40:07;;;;;;;6.35;4.95;;;17.90;81.20;;;;;;4229888;28;20221;-71
2022/03/01 06:42:12;;;;;;;5.70;4.95;;;17.90;80.60;;;;;;4229560;28;20650;-71
2022/03/01 06:44:14;;;;;;;6.07;4.78;;;17.90;80.90;;;;;;4228565;28;20259;-71
2022/03/01 06:46:16;;;;;;;6.15;4.97;;;17.90;81.30;;;;;;4229633;28;20271;-72
2022/03/01 06:48:19;;;;;;;6.68;4.85;;;17.90;81.50;;;;;;4229697;28;20259;-71
2022/03/01 06:50:21;;;;;;;6.70;4.78;;;17.90;81.40;;;;;;4229684;28;20219;-72
2022/03/01 06:52:24;;;;;;;5.85;4.80;;;18.00;82.10;;;;;;4225830;28;20229;-71
2022/03/01 06:54:26;;;;;;;5.68;4.70;;;18.00;82.50;;;;;;4229668;28;20213;-72
2022/03/01 06:56:29;;;;;;;5.63;4.57;;;18.00;83.10;;;;;;4229687;28;20210;-71
2022/03/01 06:58:33;;;;;;;6.65;4.70;;;18.00;82.60;;;;;;4229539;28;20225;-72
2022/03/01 07:00:38;;;;;;;5.95;4.75;;;18.00;82.10;;;;;;4228246;28;20221;-72
2022/03/01 07:02:41;;;;;;;6.35;4.85;;;18.00;82.90;;;;;;4229051;28;20221;-72
2022/03/01 07:04:43;;;;;;;5.88;4.65;;;18.00;83.40;;;;;;4229407;28;20738;-71
2022/03/01 07:06:45;;;;;;;5.20;4.63;;;18.10;83.50;;;;;;4229740;28;21087;-71
2022/03/01 07:08:49;;;;;;;9.52;4.78;;;18.00;84.10;;;;;;4229809;28;20274;-72
2022/03/01 07:10:51;;;;;;;6.38;4.68;;;18.10;83.30;;;;;;4229409;28;20234;-71
2022/03/01 07:12:53;;;;;;;7.53;5.30;;;18.10;83.90;;;;;;4229056;28;20613;-72
2022/03/01 07:14:57;;;;;;;5.40;4.65;;;18.10;85.20;;;;;;4228489;28;20296;-72
2022/03/01 07:17:00;;;;;;;8.23;4.57;;;18.10;84.10;;;;;;4227717;28;20256;-71
2022/03/01 07:19:02;;;;;;;6.28;4.68;;;18.10;84.30;;;;;;4229129;28;20255;-72
2022/03/01 07:21:04;;;;;;;5.68;4.55;;;18.10;84.30;;;;;;4229531;28;20213;-72
2022/03/01 07:23:07;;;;;;;5.50;4.72;;;18.10;84.40;;;;;;4229076;28;20662;-72
2022/03/01 07:25:10;;;;;;;5.95;4.43;;;18.10;84.90;;;;;;4228895;28;20231;-72
2022/03/01 07:27:13;;;;;;;5.18;4.28;;;18.10;85.00;;;;;;4228918;28;20209;-72
2022/03/01 07:29:15;;;;;;;4.75;4.05;;;18.10;84.50;;;;;;4228905;28;20259;-71
2022/03/01 07:31:20;;;;;;;5.55;4.40;;;18.20;85.10;;;;;;4229109;28;20290;-71
2022/03/01 07:33:22;;;;;;;5.10;4.32;;;18.10;84.60;;;;;;4228886;28;20268;-72
2022/03/01 07:35:26;;;;;;;7.78;4.60;;;18.20;85.40;;;;;;4229340;28;20206;-71
2022/03/01 07:37:28;;;;;;;5.82;4.85;;;18.20;85.20;;;;;;4228501;28;20619;-71
2022/03/01 07:39:31;;;;;;;4.78;4.18;;;18.20;85.50;;;;;;4228962;28;20213;-71
2022/03/01 07:41:33;;;;;;;4.55;4.13;;;18.20;85.50;;;;;;4228800;28;20279;-71
2022/03/01 07:43:36;;;;;;;4.80;4.13;;;18.20;85.50;;;;;;4229249;28;20209;-71
2022/03/01 07:45:38;;;;;;;4.90;3.75;;;18.30;86.00;;;;;;4227941;28;20214;-72
2022/03/01 07:47:42;;;;;;;5.15;4.38;;;18.30;86.00;;;;;;4228421;28;20209;-72
2022/03/01 07:49:47;;;;;;;5.53;3.72;;;18.30;85.70;;;;;;4227348;28;20232;-72
2022/03/01 07:51:49;;;;;;;4.03;3.63;;;18.30;85.70;;;;;;4228636;28;20290;-71
2022/03/01 07:53:52;;;;;;;4.07;3.67;;;18.30;85.80;;;;;;4228755;28;20218;-71
2022/03/01 07:55:54;;;;;;;4.30;3.78;;;18.30;86.00;;;;;;4228663;28;20218;-72
2022/03/01 07:57:57;;;;;;;4.85;4.00;;;18.30;85.80;;;;;;4218828;28;20275;-71
2022/03/01 07:59:59;;;;;;;4.57;3.90;;;18.30;86.00;;;;;;4221418;28;20270;-72
2022/03/01 08:02:01;;;;;;;5.97;4.10;;;18.30;86.20;;;;;;4221537;28;20209;-71
2022/03/01 08:04:05;;;;;;;4.53;3.83;;;18.40;86.30;;;;;;4218912;28;20669;-71
2022/03/01 08:06:08;;;;;;;10.02;4.78;;;18.40;86.40;;;;;;4221141;28;20670;-71
2022/03/01 08:08:10;;;;;;;6.28;4.35;;;18.40;84.40;;;;;;4219405;28;20217;-72
2022/03/01 08:10:12;;;;;;;6.82;4.70;;;18.40;82.10;;;;;;4220611;28;20259;-71
2022/03/01 08:12:15;;;;;;;6.40;3.70;;;18.40;83.10;;;;;;4222210;28;20234;-70
2022/03/01 08:14:17;;;;;;;8.13;4.03;;;18.40;84.30;;;;;;4217398;28;20628;-71
2022/03/01 08:16:20;;;;;;;8.07;5.20;;;18.50;84.30;;;;;;4216585;27;20214;-71
2022/03/01 08:18:22;;;;;;;6.50;4.43;;;18.60;81.10;;;;;;4218184;28;20222;-71
2022/03/01 08:20:27;;;;;;;9.10;4.80;;;18.60;80.50;;;;;;4223323;27;20198;-71
2022/03/01 08:22:30;;;;;;;7.85;4.97;;;18.80;80.20;;;;;;4217868;28;20206;-71
2022/03/01 08:24:32;;;;;;;9.38;5.00;;;18.90;78.30;;;;;;4220802;28;20222;-71
2022/03/01 08:26:35;;;;;;;7.13;4.60;;;19.10;78.60;;;;;;4220533;28;20215;-71
2022/03/01 08:28:37;;;;;;;6.00;4.68;;;19.20;78.00;;;;;;4225260;28;20237;-71
2022/03/01 08:30:40;;;;;;;6.80;5.20;;;19.30;79.00;;;;;;4217994;28;20266;-71
2022/03/01 08:32:42;;;;;;;6.88;4.60;;;19.30;78.20;;;;;;4217255;28;20282;-71
2022/03/01 08:34:45;;;;;;;5.70;4.50;;;19.30;80.10;;;;;;4222690;28;20213;-71
2022/03/01 08:36:48;;;;;;;6.00;4.28;;;19.40;79.20;;;;;;4223926;28;20263;-71
2022/03/01 08:38:51;;;;;;;6.32;4.97;;;19.50;79.60;;;;;;4220900;28;20270;-71
2022/03/01 08:40:54;;;;;;;4.93;4.22;;;19.50;79.10;;;;;;4217386;28;20268;-71
2022/03/01 08:42:57;;;;;;;5.90;4.50;;;19.60;79.30;;;;;;4221795;28;20612;-71
2022/03/01 08:44:59;;;;;;;5.63;4.65;;;19.60;78.80;;;;;;4222643;28;20646;-71
2022/03/01 08:47:01;;;;;;;5.72;4.65;;;19.70;78.80;;;;;;4219994;28;20527;-71
2022/03/01 08:49:03;;;;;;;5.03;4.15;;;19.70;80.10;;;;;;4220253;28;20214;-72
2022/03/01 08:51:06;;;;;;;6.13;4.45;;;19.70;80.90;;;;;;4219507;28;20268;-72
2022/03/01 08:53:11;;;;;;;5.15;4.30;;;19.70;81.70;;;;;;4221407;28;20264;-71
2022/03/01 08:55:13;;;;;;;6.47;4.50;;;19.80;81.70;;;;;;4216415;28;20278;-71
2022/03/01 08:57:16;;;;;;;11.10;4.55;;;19.80;79.50;;;;;;4217323;28;20214;-71
2022/03/01 08:59:18;;;;;;;8.88;4.38;;;19.90;79.60;;;;;;4214575;28;20640;-72
2022/03/01 09:01:20;;;;;;;10.73;4.70;;;19.90;80.70;;;;;;4218023;28;20266;-73
2022/03/01 09:03:25;;;;;;;8.18;4.78;;;20.00;79.00;;;;;;4217589;28;20214;-71
2022/03/01 09:05:28;;;;;;;6.28;4.90;;;20.10;81.00;;;;;;4222171;28;20670;-72
2022/03/01 09:07:30;;;;;;;6.97;4.18;;;20.20;81.00;;;;;;4224162;28;20226;-71
2022/03/01 09:09:34;;;;;;;5.47;4.25;;;20.20;81.50;;;;;;4221752;28;20271;-71
2022/03/01 09:11:36;;;;;;;6.30;4.85;;;20.30;81.70;;;;;;4221830;28;20228;-71
2022/03/01 09:13:39;;;;;;;7.70;4.97;;;20.30;80.30;;;;;;4222580;28;20213;-71
2022/03/01 09:15:41;;;;;;;5.90;4.25;;;20.40;80.50;;;;;;4221661;28;20234;-71
2022/03/01 09:17:44;;;;;;;7.07;4.50;;;20.40;80.80;;;;;;4224089;28;20214;-70
2022/03/01 09:19:46;;;;;;;7.95;4.68;;;20.30;82.00;;;;;;4220893;28;20217;-71
2022/03/01 09:21:49;;;;;;;5.00;4.47;;;20.40;81.80;;;;;;4222504;28;20222;-71
2022/03/01 09:23:51;;;;;;;6.50;5.10;;;20.40;82.00;;;;;;4217371;28;20290;-71
2022/03/01 09:25:55;;;;;;;6.95;4.97;;;20.50;81.80;;;;;;4220073;28;20279;-72
2022/03/01 09:27:58;;;;;;;8.35;4.53;;;20.50;81.60;;;;;;4224913;28;20210;-70
2022/03/01 09:30:00;;;;;;;8.70;4.88;;;20.50;81.50;;;;;;4223016;28;20217;-70
2022/03/01 09:32:03;;;;;;;7.63;4.43;;;20.50;81.20;;;;;;4221718;28;20653;-71
2022/03/01 09:34:05;;;;;;;8.10;4.95;;;20.50;81.60;;;;;;4225069;28;20209;-71
2022/03/01 09:36:07;;;;;;;5.65;4.72;;;20.60;80.30;;;;;;4225987;28;20233;-71
2022/03/01 09:38:10;;;;;;;6.72;4.53;;;20.60;81.70;;;;;;4222976;28;20258;-71
2022/03/01 09:40:14;;;;;;;7.30;4.75;;;20.60;81.70;;;;;;4221530;28;20734;-71
2022/03/01 09:42:18;;;;;;;7.07;5.10;;;20.60;81.80;;;;;;4221610;28;20611;-70
2022/03/01 09:44:22;;;;;;;7.97;4.97;;;20.60;81.30;;;;;;4221857;28;20666;-70
2022/03/01 09:46:24;;;;;;;7.38;5.30;;;20.70;81.00;;;;;;4214658;28;20244;-71
2022/03/01 09:48:26;;;;;;;6.93;5.32;;;20.70;80.90;;;;;;4218844;28;20315;-71
2022/03/01 09:50:29;;;;;;;6.38;4.70;;;20.70;80.00;;;;;;4222981;28;20259;-71
2022/03/01 09:52:32;;;;;;;7.03;4.57;;;20.60;79.70;;;;;;4221178;28;20250;-71
2022/03/01 09:54:34;;;;;;;7.80;4.90;;;20.70;81.70;;;;;;4220535;27;20268;-70
2022/03/01 09:56:36;;;;;;;5.82;4.70;;;20.60;80.00;;;;;;4218954;28;20218;-70
2022/03/01 09:58:40;;;;;;;6.75;4.85;;;20.60;80.40;;;;;;4223353;28;20271;-70
2022/03/01 10:00:45;;;;;;;9.07;5.35;;;20.80;81.80;;;;;;4221110;28;20313;-71
2022/03/01 10:02:47;;;;;;;5.72;4.93;;;20.80;82.60;;;;;;4220563;27;20255;-71
2022/03/01 10:04:57;;;;;;;5.75;5.03;;;20.80;81.70;;;;;;4223758;27;20255;-71
2022/03/01 10:07:03;;;;;;;7.93;4.60;;;20.80;82.30;;;;;;4221424;28;20222;-71
2022/03/01 10:09:16;;;;;;;7.72;4.80;;;20.80;83.20;;;;;;4227816;28;20214;-71
2022/03/01 10:11:18;;;;;;;7.82;5.22;;;20.80;82.60;;;;;;4225777;28;20266;-71
2022/03/01 10:13:24;;;;;;;6.75;4.85;;;20.90;83.60;;;;;;4227702;28;20558;-71
2022/03/01 10:15:31;;;;;;;8.30;4.80;;;20.90;83.20;;;;;;4221747;28;20338;-71
2022/03/01 10:17:35;;;;;;;5.85;5.25;;;21.00;82.60;;;;;;4223522;28;20219;-71
2022/03/01 10:19:37;;;;;;;6.95;5.13;;;21.00;82.00;;;;;;4215298;27;20247;-71
2022/03/01 10:21:39;;;;;;;9.60;5.47;;;20.90;80.10;;;;;;4223961;27;20239;-71
2022/03/01 10:23:48;;;;;;;6.75;4.93;;;20.90;81.30;;;;;;4223430;28;20213;-71
2022/03/01 10:25:50;;;;;;;9.43;4.70;;;20.90;81.70;;;;;;4222214;27;20267;-72
2022/03/01 10:27:55;;;;;;;4.75;4.20;;;21.10;81.70;;;;;;4225288;28;20218;-72
2022/03/01 10:29:57;;;;;;;6.65;4.60;;;21.10;81.90;;;;;;4227657;27;20213;-71
2022/03/01 10:32:11;;;;;;;6.88;5.18;;;21.10;81.30;;;;;;4222812;28;20666;-72
2022/03/01 10:34:15;;;;;;;7.32;5.78;;;21.20;81.80;;;;;;4214761;27;20291;-72
2022/03/01 10:36:22;;;;;;;7.45;5.13;;;21.30;80.40;;;;;;4220498;28;20715;-71
2022/03/01 10:38:24;;;;;;;7.00;5.43;;;21.30;80.80;;;;;;4219492;27;20964;-71